sensor_id;sensor_type;location;lat;lon;timestamp;pressure;altitude;pressure_sealevel;temperature;humidity
55032;BME280;40928;51.076;7.950;2023-03-14T00:00:35;94817.28;;;8.27;100.00
55032;BME280;40928;51.076;7.950;2023-03-14T00:03:00;94792.69;;;8.11;100.00
55032;BME280;40928;51.076;7.950;2023-03-14T00:05:26;94784.72;;;8.11;100.00
55032;BME280;40928;51.076;7.950;2023-03-14T00:07:52;94793.00;;;8.04;100.00
55032;BME280;40928;51.076;7.950;2023-03-14T00:10:17;94802.28;;;8.07;100.00
55032;BME280;40928;51.076;7.950;2023-03-14T00:12:43;94795.31;;;8.16;100.00
55032;BME280;40928;51.076;7.950;2023-03-14T00:15:10;94798.84;;;8.06;100.00
55032;BME280;40928;51.076;7.950;2023-03-14T00:17:36;94792.66;;;8.16;100.00
55032;BME280;40928;51.076;7.950;2023-03-14T00:20:03;94793.97;;;8.19;100.00
55032;BME280;40928;51.076;7.950;2023-03-14T00:22:36;94796.38;;;8.15;100.00
55032;BME280;40928;51.076;7.950;2023-03-14T00:25:03;94791.09;;;8.10;100.00
55032;BME280;40928;51.076;7.950;2023-03-14T00:27:29;94788.94;;;8.17;100.00
55032;BME280;40928;51.076;7.950;2023-03-14T00:29:54;94801.72;;;8.15;100.00
55032;BME280;40928;51.076;7.950;2023-03-14T00:32:20;94807.56;;;8.12;100.00
55032;BME280;40928;51.076;7.950;2023-03-14T00:34:46;94810.81;;;8.04;100.00
55032;BME280;40928;51.076;7.950;2023-03-14T00:37:13;94821.63;;;8.18;100.00
55032;BME280;40928;51.076;7.950;2023-03-14T00:39:39;94829.03;;;8.21;100.00
55032;BME280;40928;51.076;7.950;2023-03-14T00:42:05;94827.16;;;8.21;100.00
55032;BME280;40928;51.076;7.950;2023-03-14T00:44:31;94822.09;;;8.25;100.00
55032;BME280;40928;51.076;7.950;2023-03-14T00:46:57;94814.63;;;8.27;100.00
55032;BME280;40928;51.076;7.950;2023-03-14T00:49:24;94801.28;;;8.32;100.00
55032;BME280;40928;51.076;7.950;2023-03-14T00:51:50;94808.75;;;8.30;100.00
55032;BME280;40928;51.076;7.950;2023-03-14T00:54:17;94809.88;;;8.24;100.00
55032;BME280;40928;51.076;7.950;2023-03-14T00:56:42;94791.53;;;8.22;100.00
55032;BME280;40928;51.076;7.950;2023-03-14T00:59:08;94784.91;;;8.20;100.00
55032;BME280;40928;51.076;7.950;2023-03-14T01:01:33;94773.72;;;8.23;100.00
55032;BME280;40928;51.076;7.950;2023-03-14T01:03:59;94762.28;;;8.22;100.00
55032;BME280;40928;51.076;7.950;2023-03-14T01:06:26;94765.47;;;8.25;100.00
55032;BME280;40928;51.076;7.950;2023-03-14T01:08:53;94777.41;;;8.27;100.00
55032;BME280;40928;51.076;7.950;2023-03-14T01:11:33;94755.88;;;8.29;100.00
55032;BME280;40928;51.076;7.950;2023-03-14T01:13:59;94777.47;;;8.22;100.00
55032;BME280;40928;51.076;7.950;2023-03-14T01:16:30;94780.56;;;8.29;100.00
55032;BME280;40928;51.076;7.950;2023-03-14T01:18:59;94779.47;;;8.35;100.00
55032;BME280;40928;51.076;7.950;2023-03-14T01:24:04;94775.81;;;8.26;100.00
55032;BME280;40928;51.076;7.950;2023-03-14T01:26:32;94774.75;;;8.27;100.00
55032;BME280;40928;51.076;7.950;2023-03-14T01:28:59;94775.34;;;8.19;100.00
55032;BME280;40928;51.076;7.950;2023-03-14T01:31:26;94779.19;;;8.07;100.00
55032;BME280;40928;51.076;7.950;2023-03-14T01:33:52;94776.22;;;8.09;100.00
55032;BME280;40928;51.076;7.950;2023-03-14T01:36:18;94779.97;;;8.03;100.00
55032;BME280;40928;51.076;7.950;2023-03-14T01:38:45;94761.47;;;7.92;100.00
55032;BME280;40928;51.076;7.950;2023-03-14T01:41:20;94763.38;;;7.87;100.00
55032;BME280;40928;51.076;7.950;2023-03-14T01:43:46;94751.69;;;7.83;100.00
55032;BME280;40928;51.076;7.950;2023-03-14T01:49:09;94727.28;;;7.81;100.00
55032;BME280;40928;51.076;7.950;2023-03-14T01:51:48;94736.09;;;7.76;100.00
55032;BME280;40928;51.076;7.950;2023-03-14T01:54:35;94733.44;;;7.71;100.00
55032;BME280;40928;51.076;7.950;2023-03-14T01:57:15;94720.38;;;7.80;100.00
55032;BME280;40928;51.076;7.950;2023-03-14T01:59:49;94729.72;;;7.72;100.00
55032;BME280;40928;51.076;7.950;2023-03-14T02:02:18;94727.06;;;7.72;100.00
55032;BME280;40928;51.076;7.950;2023-03-14T02:04:44;94730.75;;;7.76;100.00
55032;BME280;40928;51.076;7.950;2023-03-14T02:07:22;94728.13;;;7.71;100.00
55032;BME280;40928;51.076;7.950;2023-03-14T02:10:09;94711.63;;;7.79;100.00
55032;BME280;40928;51.076;7.950;2023-03-14T02:12:36;94716.22;;;7.68;100.00
55032;BME280;40928;51.076;7.950;2023-03-14T02:15:17;94710.38;;;7.66;100.00
55032;BME280;40928;51.076;7.950;2023-03-14T02:17:54;94707.72;;;7.66;100.00
55032;BME280;40928;51.076;7.950;2023-03-14T02:20:48;94704.06;;;7.62;100.00
55032;BME280;40928;51.076;7.950;2023-03-14T02:23:26;94702.97;;;7.63;100.00
55032;BME280;40928;51.076;7.950;2023-03-14T02:26:01;94705.38;;;7.59;100.00
55032;BME280;40928;51.076;7.950;2023-03-14T02:28:28;94709.09;;;7.58;100.00
55032;BME280;40928;51.076;7.950;2023-03-14T02:30:57;94711.75;;;7.58;100.00
55032;BME280;40928;51.076;7.950;2023-03-14T02:33:23;94716.81;;;7.60;100.00
55032;BME280;40928;51.076;7.950;2023-03-14T02:35:56;94717.59;;;7.60;100.00
55032;BME280;40928;51.076;7.950;2023-03-14T02:38:31;94711.97;;;7.67;100.00
55032;BME280;40928;51.076;7.950;2023-03-14T02:41:00;94706.13;;;7.65;100.00
55032;BME280;40928;51.076;7.950;2023-03-14T02:43:27;94717.59;;;7.60;100.00
55032;BME280;40928;51.076;7.950;2023-03-14T02:45:58;94705.38;;;7.59;100.00
55032;BME280;40928;51.076;7.950;2023-03-14T02:48:28;94708.88;;;7.55;100.00
55032;BME280;40928;51.076;7.950;2023-03-14T02:50:57;94717.06;;;7.58;100.00
55032;BME280;40928;51.076;7.950;2023-03-14T02:53:26;94724.25;;;7.58;100.00
55032;BME280;40928;51.076;7.950;2023-03-14T02:55:55;94722.94;;;7.55;100.00
55032;BME280;40928;51.076;7.950;2023-03-14T02:58:22;94718.75;;;7.49;100.00
55032;BME280;40928;51.076;7.950;2023-03-14T03:00:53;94719.88;;;7.38;100.00
55032;BME280;40928;51.076;7.950;2023-03-14T03:03:19;94710.88;;;7.34;100.00
55032;BME280;40928;51.076;7.950;2023-03-14T03:05:52;94697.91;;;7.27;100.00
55032;BME280;40928;51.076;7.950;2023-03-14T03:08:19;94708.09;;;7.04;100.00
55032;BME280;40928;51.076;7.950;2023-03-14T03:10:47;94699.16;;;6.90;100.00
55032;BME280;40928;51.076;7.950;2023-03-14T03:13:13;94713.78;;;6.82;100.00
55032;BME280;40928;51.076;7.950;2023-03-14T03:15:40;94696.31;;;6.70;100.00
55032;BME280;40928;51.076;7.950;2023-03-14T03:18:06;94689.19;;;6.66;100.00
55032;BME280;40928;51.076;7.950;2023-03-14T03:20:32;94688.44;;;6.55;100.00
55032;BME280;40928;51.076;7.950;2023-03-14T03:22:59;94676.50;;;6.52;100.00
55032;BME280;40928;51.076;7.950;2023-03-14T03:25:25;94680.19;;;6.57;100.00
55032;BME280;40928;51.076;7.950;2023-03-14T03:27:51;94676.75;;;6.61;100.00
55032;BME280;40928;51.076;7.950;2023-03-14T03:30:17;94661.38;;;6.58;100.00
55032;BME280;40928;51.076;7.950;2023-03-14T03:32:43;94672.75;;;6.59;100.00
55032;BME280;40928;51.076;7.950;2023-03-14T03:35:10;94677.28;;;6.53;100.00
55032;BME280;40928;51.076;7.950;2023-03-14T03:37:38;94681.53;;;6.54;100.00
55032;BME280;40928;51.076;7.950;2023-03-14T03:40:06;94682.59;;;6.58;100.00
55032;BME280;40928;51.076;7.950;2023-03-14T03:42:33;94676.47;;;6.58;100.00
55032;BME280;40928;51.076;7.950;2023-03-14T03:45:00;94684.19;;;6.59;100.00
55032;BME280;40928;51.076;7.950;2023-03-14T03:47:27;94685.72;;;6.65;100.00
55032;BME280;40928;51.076;7.950;2023-03-14T03:49:54;94686.78;;;6.75;100.00
55032;BME280;40928;51.076;7.950;2023-03-14T03:52:20;94674.78;;;6.82;100.00
55032;BME280;40928;51.076;7.950;2023-03-14T03:54:46;94670.28;;;6.83;100.00
55032;BME280;40928;51.076;7.950;2023-03-14T03:57:12;94666.84;;;6.82;100.00
55032;BME280;40928;51.076;7.950;2023-03-14T03:59:38;94668.13;;;6.90;100.00
55032;BME280;40928;51.076;7.950;2023-03-14T04:02:05;94667.56;;;6.93;100.00
55032;BME280;40928;51.076;7.950;2023-03-14T04:04:31;94663.59;;;6.96;100.00
55032;BME280;40928;51.076;7.950;2023-03-14T04:06:59;94643.66;;;6.98;100.00
55032;BME280;40928;51.076;7.950;2023-03-14T04:09:24;94642.88;;;6.98;100.00
55032;BME280;40928;51.076;7.950;2023-03-14T04:12:10;94642.34;;;6.96;100.00
55032;BME280;40928;51.076;7.950;2023-03-14T04:15:11;94643.91;;;7.02;100.00
55032;BME280;40928;51.076;7.950;2023-03-14T04:17:42;94646.75;;;7.11;100.00
55032;BME280;40928;51.076;7.950;2023-03-14T04:20:08;94640.69;;;7.10;100.00
55032;BME280;40928;51.076;7.950;2023-03-14T04:22:37;94641.22;;;7.07;100.00
55032;BME280;40928;51.076;7.950;2023-03-14T04:25:03;94637.47;;;7.13;100.00
55032;BME280;40928;51.076;7.950;2023-03-14T04:27:32;94617.25;;;7.18;100.00
55032;BME280;40928;51.076;7.950;2023-03-14T04:30:00;94618.63;;;7.10;100.00
55032;BME280;40928;51.076;7.950;2023-03-14T04:32:45;94619.75;;;7.04;100.00
55032;BME280;40928;51.076;7.950;2023-03-14T04:35:10;94614.44;;;7.04;100.00
55032;BME280;40928;51.076;7.950;2023-03-14T04:37:36;94622.19;;;7.00;100.00
55032;BME280;40928;51.076;7.950;2023-03-14T04:40:03;94616.28;;;7.03;100.00
55032;BME280;40928;51.076;7.950;2023-03-14T04:42:32;94602.47;;;7.11;100.00
55032;BME280;40928;51.076;7.950;2023-03-14T04:44:58;94612.56;;;7.09;100.00
55032;BME280;40928;51.076;7.950;2023-03-14T04:47:26;94596.72;;;6.99;100.00
55032;BME280;40928;51.076;7.950;2023-03-14T04:49:52;94604.66;;;6.99;100.00
55032;BME280;40928;51.076;7.950;2023-03-14T04:52:18;94598.28;;;7.00;100.00
55032;BME280;40928;51.076;7.950;2023-03-14T04:54:46;94603.56;;;7.05;100.00
55032;BME280;40928;51.076;7.950;2023-03-14T04:57:11;94609.91;;;7.04;100.00
55032;BME280;40928;51.076;7.950;2023-03-14T04:59:38;94618.69;;;7.05;100.00
55032;BME280;40928;51.076;7.950;2023-03-14T05:02:16;94603.53;;;7.10;100.00
55032;BME280;40928;51.076;7.950;2023-03-14T05:04:53;94611.72;;;7.14;100.00
55032;BME280;40928;51.076;7.950;2023-03-14T05:07:37;94599.81;;;7.11;100.00
55032;BME280;40928;51.076;7.950;2023-03-14T05:10:23;94609.06;;;7.14;100.00
55032;BME280;40928;51.076;7.950;2023-03-14T05:13:24;94595.28;;;7.12;100.00
55032;BME280;40928;51.076;7.950;2023-03-14T05:16:13;94584.66;;;7.12;100.00
55032;BME280;40928;51.076;7.950;2023-03-14T05:18:48;94585.38;;;7.23;100.00
55032;BME280;40928;51.076;7.950;2023-03-14T05:21:34;94574.78;;;7.18;100.00
55032;BME280;40928;51.076;7.950;2023-03-14T05:24:23;94586.00;;;7.14;100.00
55032;BME280;40928;51.076;7.950;2023-03-14T05:27:07;94582.75;;;7.18;100.00
55032;BME280;40928;51.076;7.950;2023-03-14T05:29:46;94585.41;;;7.18;100.00
55032;BME280;40928;51.076;7.950;2023-03-14T05:32:21;94592.88;;;7.15;100.00
55032;BME280;40928;51.076;7.950;2023-03-14T05:35:07;94584.41;;;7.13;100.00
55032;BME280;40928;51.076;7.950;2023-03-14T05:38:05;94592.03;;;7.20;100.00
55032;BME280;40928;51.076;7.950;2023-03-14T05:40:58;94590.47;;;7.19;100.00
55032;BME280;40928;51.076;7.950;2023-03-14T05:43:42;94592.06;;;7.15;100.00
55032;BME280;40928;51.076;7.950;2023-03-14T05:46:30;94588.97;;;7.08;100.00
55032;BME280;40928;51.076;7.950;2023-03-14T05:49:20;94586.56;;;7.06;100.00
55032;BME280;40928;51.076;7.950;2023-03-14T05:52:09;94578.63;;;7.01;100.00
55032;BME280;40928;51.076;7.950;2023-03-14T05:54:48;94582.91;;;6.97;100.00
55032;BME280;40928;51.076;7.950;2023-03-14T05:57:27;94589.56;;;6.94;100.00
55032;BME280;40928;51.076;7.950;2023-03-14T06:00:10;94586.63;;;6.96;100.00
55032;BME280;40928;51.076;7.950;2023-03-14T06:02:40;94590.38;;;6.90;100.00
55032;BME280;40928;51.076;7.950;2023-03-14T06:05:16;94585.63;;;6.86;100.00
55032;BME280;40928;51.076;7.950;2023-03-14T06:07:42;94586.16;;;6.89;100.00
55032;BME280;40928;51.076;7.950;2023-03-14T06:10:08;94579.25;;;6.88;100.00
55032;BME280;40928;51.076;7.950;2023-03-14T06:12:35;94576.88;;;6.86;100.00
55032;BME280;40928;51.076;7.950;2023-03-14T06:15:00;94575.00;;;6.86;100.00
55032;BME280;40928;51.076;7.950;2023-03-14T06:17:26;94567.63;;;6.83;100.00
55032;BME280;40928;51.076;7.950;2023-03-14T06:20:00;94574.44;;;6.95;100.00
55032;BME280;40928;51.076;7.950;2023-03-14T06:22:27;94572.34;;;6.86;100.00
55032;BME280;40928;51.076;7.950;2023-03-14T06:24:53;94567.84;;;6.87;100.00
55032;BME280;40928;51.076;7.950;2023-03-14T06:27:20;94574.53;;;6.84;100.00
55032;BME280;40928;51.076;7.950;2023-03-14T06:29:47;94572.34;;;6.86;100.00
55032;BME280;40928;51.076;7.950;2023-03-14T06:32:12;94577.94;;;6.90;100.00
55032;BME280;40928;51.076;7.950;2023-03-14T06:34:38;94565.44;;;6.91;100.00
55032;BME280;40928;51.076;7.950;2023-03-14T06:37:04;94573.63;;;6.94;100.00
55032;BME280;40928;51.076;7.950;2023-03-14T06:39:31;94576.81;;;6.96;100.00
55032;BME280;40928;51.076;7.950;2023-03-14T06:42:04;94570.19;;;6.94;100.00
55032;BME280;40928;51.076;7.950;2023-03-14T06:44:32;94559.38;;;6.85;100.00
55032;BME280;40928;51.076;7.950;2023-03-14T06:46:57;94570.53;;;6.82;100.00
55032;BME280;40928;51.076;7.950;2023-03-14T06:49:23;94559.94;;;6.82;100.00
55032;BME280;40928;51.076;7.950;2023-03-14T06:51:52;94571.34;;;6.82;100.00
55032;BME280;40928;51.076;7.950;2023-03-14T06:54:18;94562.03;;;6.85;100.00
55032;BME280;40928;51.076;7.950;2023-03-14T06:56:43;94570.78;;;6.85;100.00
55032;BME280;40928;51.076;7.950;2023-03-14T06:59:09;94574.00;;;6.82;100.00
55032;BME280;40928;51.076;7.950;2023-03-14T07:01:35;94572.63;;;6.90;100.00
55032;BME280;40928;51.076;7.950;2023-03-14T07:04:05;94575.78;;;6.92;100.00
55032;BME280;40928;51.076;7.950;2023-03-14T07:06:33;94581.59;;;6.94;100.00
55032;BME280;40928;51.076;7.950;2023-03-14T07:08:58;94574.13;;;7.01;100.00
55032;BME280;40928;51.076;7.950;2023-03-14T07:11:24;94570.72;;;6.96;100.00
55032;BME280;40928;51.076;7.950;2023-03-14T07:13:50;94580.72;;;7.04;100.00
55032;BME280;40928;51.076;7.950;2023-03-14T07:16:16;94567.22;;;7.00;100.00
55032;BME280;40928;51.076;7.950;2023-03-14T07:18:41;94561.09;;;7.05;100.00
55032;BME280;40928;51.076;7.950;2023-03-14T07:21:08;94568.53;;;7.03;100.00
55032;BME280;40928;51.076;7.950;2023-03-14T07:26:02;94572.09;;;6.88;100.00
55032;BME280;40928;51.076;7.950;2023-03-14T07:28:30;94576.56;;;6.93;100.00
55032;BME280;40928;51.076;7.950;2023-03-14T07:31:04;94572.88;;;6.89;100.00
55032;BME280;40928;51.076;7.950;2023-03-14T07:33:31;94576.88;;;6.91;100.00
55032;BME280;40928;51.076;7.950;2023-03-14T07:35:57;94581.34;;;6.91;100.00
55032;BME280;40928;51.076;7.950;2023-03-14T07:38:23;94585.06;;;6.95;100.00
55032;BME280;40928;51.076;7.950;2023-03-14T07:41:07;94578.19;;;6.89;100.00
55032;BME280;40928;51.076;7.950;2023-03-14T07:43:36;94582.41;;;6.90;100.00
55032;BME280;40928;51.076;7.950;2023-03-14T07:46:01;94580.38;;;6.76;100.00
55032;BME280;40928;51.076;7.950;2023-03-14T07:48:27;94586.44;;;6.82;100.00
55032;BME280;40928;51.076;7.950;2023-03-14T07:50:53;94588.78;;;6.89;100.00
55032;BME280;40928;51.076;7.950;2023-03-14T07:53:20;94595.16;;;6.93;100.00
55032;BME280;40928;51.076;7.950;2023-03-14T07:55:46;94594.31;;;6.97;100.00
55032;BME280;40928;51.076;7.950;2023-03-14T07:58:13;94594.53;;;7.01;100.00
55032;BME280;40928;51.076;7.950;2023-03-14T08:00:39;94577.25;;;7.09;100.00
55032;BME280;40928;51.076;7.950;2023-03-14T08:03:05;94585.53;;;7.02;100.00
55032;BME280;40928;51.076;7.950;2023-03-14T08:05:30;94589.72;;;7.08;100.00
55032;BME280;40928;51.076;7.950;2023-03-14T08:07:56;94591.31;;;7.09;100.00
55032;BME280;40928;51.076;7.950;2023-03-14T08:10:21;94588.16;;;7.07;100.00
55032;BME280;40928;51.076;7.950;2023-03-14T08:12:55;94594.00;;;7.04;100.00
55032;BME280;40928;51.076;7.950;2023-03-14T08:15:22;94599.31;;;7.04;100.00
55032;BME280;40928;51.076;7.950;2023-03-14T08:17:48;94593.44;;;7.07;100.00
55032;BME280;40928;51.076;7.950;2023-03-14T08:20:24;94597.63;;;7.19;100.00
55032;BME280;40928;51.076;7.950;2023-03-14T08:22:50;94604.78;;;7.18;100.00
55032;BME280;40928;51.076;7.950;2023-03-14T08:25:16;94598.13;;;7.21;100.00
55032;BME280;40928;51.076;7.950;2023-03-14T08:27:42;94605.31;;;7.20;100.00
55032;BME280;40928;51.076;7.950;2023-03-14T08:30:11;94600.03;;;7.15;100.00
55032;BME280;40928;51.076;7.950;2023-03-14T08:32:37;94608.75;;;7.21;100.00
55032;BME280;40928;51.076;7.950;2023-03-14T08:35:04;94599.16;;;7.25;100.00
55032;BME280;40928;51.076;7.950;2023-03-14T08:37:33;94617.63;;;7.40;100.00
55032;BME280;40928;51.076;7.950;2023-03-14T08:40:00;94606.81;;;7.31;100.00
55032;BME280;40928;51.076;7.950;2023-03-14T08:42:25;94615.56;;;7.32;100.00
55032;BME280;40928;51.076;7.950;2023-03-14T08:44:52;94617.47;;;7.26;100.00
55032;BME280;40928;51.076;7.950;2023-03-14T08:47:17;94615.09;;;7.25;100.00
55032;BME280;40928;51.076;7.950;2023-03-14T08:49:43;94618.72;;;7.34;100.00
55032;BME280;40928;51.076;7.950;2023-03-14T08:52:09;94623.41;;;7.47;100.00
55032;BME280;40928;51.076;7.950;2023-03-14T08:54:34;94621.59;;;7.43;100.00
55032;BME280;40928;51.076;7.950;2023-03-14T08:57:00;94611.16;;;7.52;100.00
55032;BME280;40928;51.076;7.950;2023-03-14T08:59:26;94620.94;;;7.56;100.00
55032;BME280;40928;51.076;7.950;2023-03-14T09:01:51;94610.84;;;7.58;100.00
55032;BME280;40928;51.076;7.950;2023-03-14T09:04:17;94611.88;;;7.62;100.00
55032;BME280;40928;51.076;7.950;2023-03-14T09:06:42;94614.75;;;7.66;100.00
55032;BME280;40928;51.076;7.950;2023-03-14T09:09:08;94621.63;;;7.72;100.00
55032;BME280;40928;51.076;7.950;2023-03-14T09:11:34;94612.41;;;7.94;100.00
55032;BME280;40928;51.076;7.950;2023-03-14T09:13:59;94623.63;;;7.86;100.00
55032;BME280;40928;51.076;7.950;2023-03-14T09:16:25;94615.09;;;7.89;100.00
55032;BME280;40928;51.076;7.950;2023-03-14T09:18:50;94617.13;;;7.97;100.00
55032;BME280;40928;51.076;7.950;2023-03-14T09:21:20;94625.00;;;8.07;100.00
55032;BME280;40928;51.076;7.950;2023-03-14T09:23:46;94614.03;;;8.14;100.00
55032;BME280;40928;51.076;7.950;2023-03-14T09:26:13;94624.59;;;8.19;100.00
55032;BME280;40928;51.076;7.950;2023-03-14T09:28:38;94620.25;;;8.29;100.00
55032;BME280;40928;51.076;7.950;2023-03-14T09:31:08;94620.47;;;8.32;100.00
55032;BME280;40928;51.076;7.950;2023-03-14T09:33:35;94624.53;;;8.54;100.00
55032;BME280;40928;51.076;7.950;2023-03-14T09:36:00;94625.31;;;8.55;100.00
55032;BME280;40928;51.076;7.950;2023-03-14T09:38:27;94618.69;;;8.52;100.00
55032;BME280;40928;51.076;7.950;2023-03-14T09:40:57;94634.13;;;8.50;100.00
55032;BME280;40928;51.076;7.950;2023-03-14T09:43:24;94632.13;;;8.36;100.00
55032;BME280;40928;51.076;7.950;2023-03-14T09:45:52;94626.81;;;8.36;100.00
55032;BME280;40928;51.076;7.950;2023-03-14T09:48:26;94634.81;;;8.36;100.00
55032;BME280;40928;51.076;7.950;2023-03-14T09:50:55;94631.06;;;8.37;100.00
55032;BME280;40928;51.076;7.950;2023-03-14T09:53:28;94640.63;;;8.38;100.00
55032;BME280;40928;51.076;7.950;2023-03-14T09:55:58;94640.47;;;8.30;100.00
55032;BME280;40928;51.076;7.950;2023-03-14T09:58:24;94640.50;;;8.25;100.00
55032;BME280;40928;51.076;7.950;2023-03-14T10:00:52;94641.25;;;8.30;100.00
55032;BME280;40928;51.076;7.950;2023-03-14T10:05:50;94649.50;;;8.29;100.00
55032;BME280;40928;51.076;7.950;2023-03-14T10:08:16;94648.78;;;8.23;100.00
55032;BME280;40928;51.076;7.950;2023-03-14T10:10:41;94648.66;;;8.33;100.00
55032;BME280;40928;51.076;7.950;2023-03-14T10:13:25;94644.00;;;8.20;100.00
55032;BME280;40928;51.076;7.950;2023-03-14T10:16:02;94647.19;;;8.22;100.00
55032;BME280;40928;51.076;7.950;2023-03-14T10:18:31;94666.06;;;8.20;100.00
55032;BME280;40928;51.076;7.950;2023-03-14T10:23:51;94660.84;;;8.10;100.00
55032;BME280;40928;51.076;7.950;2023-03-14T10:26:19;94677.84;;;8.14;100.00
55032;BME280;40928;51.076;7.950;2023-03-14T10:28:53;94691.66;;;8.16;100.00
55032;BME280;40928;51.076;7.950;2023-03-14T10:31:26;94686.66;;;8.10;100.00
55032;BME280;40928;51.076;7.950;2023-03-14T10:34:04;94697.28;;;8.10;100.00
55032;BME280;40928;51.076;7.950;2023-03-14T10:36:31;94698.81;;;8.16;100.00
55032;BME280;40928;51.076;7.950;2023-03-14T10:39:30;94703.38;;;8.10;100.00
55032;BME280;40928;51.076;7.950;2023-03-14T10:42:05;94721.25;;;8.04;100.00
55032;BME280;40928;51.076;7.950;2023-03-14T10:44:33;94712.72;;;8.07;100.00
55032;BME280;40928;51.076;7.950;2023-03-14T10:47:02;94751.25;;;8.05;100.00
55032;BME280;40928;51.076;7.950;2023-03-14T10:51:55;94772.22;;;7.72;100.00
55032;BME280;40928;51.076;7.950;2023-03-14T10:54:22;94784.31;;;7.49;100.00
55032;BME280;40928;51.076;7.950;2023-03-14T10:56:59;94801.69;;;7.25;100.00
55032;BME280;40928;51.076;7.950;2023-03-14T10:59:28;94820.38;;;7.05;100.00
55032;BME280;40928;51.076;7.950;2023-03-14T11:01:58;94831.81;;;6.90;100.00
55032;BME280;40928;51.076;7.950;2023-03-14T11:07:19;94849.66;;;6.58;100.00
55032;BME280;40928;51.076;7.950;2023-03-14T11:12:57;94877.22;;;6.42;100.00
55032;BME280;40928;51.076;7.950;2023-03-14T11:15:34;94893.38;;;6.30;100.00
55032;BME280;40928;51.076;7.950;2023-03-14T11:21:02;94903.16;;;6.19;100.00
55032;BME280;40928;51.076;7.950;2023-03-14T11:29:31;94920.38;;;6.06;100.00
55032;BME280;40928;51.076;7.950;2023-03-14T11:32:04;94912.16;;;6.07;100.00
55032;BME280;40928;51.076;7.950;2023-03-14T11:34:50;94927.78;;;6.09;100.00
55032;BME280;40928;51.076;7.950;2023-03-14T11:37:36;94921.41;;;6.00;100.00
55032;BME280;40928;51.076;7.950;2023-03-14T11:40:19;94936.47;;;5.94;100.00
55032;BME280;40928;51.076;7.950;2023-03-14T11:43:00;94939.13;;;5.94;100.00
55032;BME280;40928;51.076;7.950;2023-03-14T11:45:34;94944.41;;;5.84;100.00
55032;BME280;40928;51.076;7.950;2023-03-14T11:48:25;94950.47;;;5.79;100.00
55032;BME280;40928;51.076;7.950;2023-03-14T11:50:57;94945.66;;;5.71;100.00
55032;BME280;40928;51.076;7.950;2023-03-14T11:53:39;94955.22;;;5.77;100.00
55032;BME280;40928;51.076;7.950;2023-03-14T11:56:14;94968.97;;;5.69;100.00
55032;BME280;40928;51.076;7.950;2023-03-14T11:58:51;94982.75;;;5.71;100.00
55032;BME280;40928;51.076;7.950;2023-03-14T12:01:20;94996.00;;;5.71;100.00
55032;BME280;40928;51.076;7.950;2023-03-14T12:04:06;95015.06;;;5.78;100.00
55032;BME280;40928;51.076;7.950;2023-03-14T12:09:08;95040.50;;;5.74;100.00
55032;BME280;40928;51.076;7.950;2023-03-14T12:14:17;95052.59;;;5.64;100.00
55032;BME280;40928;51.076;7.950;2023-03-14T12:16:46;95062.97;;;5.66;100.00
55032;BME280;40928;51.076;7.950;2023-03-14T12:19:39;95071.69;;;5.67;100.00
55032;BME280;40928;51.076;7.950;2023-03-14T12:22:07;95078.78;;;5.56;100.00
55032;BME280;40928;51.076;7.950;2023-03-14T12:24:36;95076.34;;;5.49;100.00
55032;BME280;40928;51.076;7.950;2023-03-14T12:27:05;95087.69;;;5.44;100.00
55032;BME280;40928;51.076;7.950;2023-03-14T12:29:31;95105.41;;;5.39;100.00
55032;BME280;40928;51.076;7.950;2023-03-14T12:32:21;95110.69;;;5.39;100.00
55032;BME280;40928;51.076;7.950;2023-03-14T12:34:47;95122.91;;;5.45;100.00
55032;BME280;40928;51.076;7.950;2023-03-14T12:37:48;95126.22;;;5.30;100.00
55032;BME280;40928;51.076;7.950;2023-03-14T12:40:31;95146.06;;;5.27;100.00
55032;BME280;40928;51.076;7.950;2023-03-14T12:42:59;95148.16;;;5.25;100.00
55032;BME280;40928;51.076;7.950;2023-03-14T12:45:30;95147.59;;;5.23;100.00
55032;BME280;40928;51.076;7.950;2023-03-14T12:51:03;95183.31;;;5.21;100.00
55032;BME280;40928;51.076;7.950;2023-03-14T12:54:04;95188.09;;;5.24;100.00
55032;BME280;40928;51.076;7.950;2023-03-14T13:07:13;95243.69;;;4.57;100.00
55032;BME280;40928;51.076;7.950;2023-03-14T13:12:26;95266.38;;;4.36;100.00
55032;BME280;40928;51.076;7.950;2023-03-14T13:14:58;95272.53;;;4.41;100.00
55032;BME280;40928;51.076;7.950;2023-03-14T13:17:32;95285.16;;;4.34;100.00
55032;BME280;40928;51.076;7.950;2023-03-14T13:20:03;95296.66;;;4.28;100.00
55032;BME280;40928;51.076;7.950;2023-03-14T13:22:33;95305.94;;;4.31;100.00
55032;BME280;40928;51.076;7.950;2023-03-14T13:25:04;95307.31;;;4.33;100.00
55032;BME280;40928;51.076;7.950;2023-03-14T13:27:32;95318.69;;;4.34;100.00
55032;BME280;40928;51.076;7.950;2023-03-14T13:29:58;95331.34;;;4.32;100.00
55032;BME280;40928;51.076;7.950;2023-03-14T13:32:41;95330.63;;;4.19;100.00
55032;BME280;40928;51.076;7.950;2023-03-14T13:35:21;95329.31;;;4.22;100.00
55032;BME280;40928;51.076;7.950;2023-03-14T13:37:53;95335.81;;;3.97;100.00
55032;BME280;40928;51.076;7.950;2023-03-14T13:40:25;95337.72;;;4.02;100.00
55032;BME280;40928;51.076;7.950;2023-03-14T13:43:04;95346.84;;;3.94;100.00
55032;BME280;40928;51.076;7.950;2023-03-14T13:45:43;95345.31;;;3.98;100.00
55032;BME280;40928;51.076;7.950;2023-03-14T13:48:11;95357.03;;;4.02;100.00
55032;BME280;40928;51.076;7.950;2023-03-14T13:50:37;95356.72;;;4.16;100.00
55032;BME280;40928;51.076;7.950;2023-03-14T13:53:03;95364.06;;;4.31;100.00
55032;BME280;40928;51.076;7.950;2023-03-14T13:55:29;95370.50;;;4.35;100.00
55032;BME280;40928;51.076;7.950;2023-03-14T13:57:54;95373.84;;;4.47;100.00
55032;BME280;40928;51.076;7.950;2023-03-14T14:00:26;95382.75;;;4.58;100.00
55032;BME280;40928;51.076;7.950;2023-03-14T14:02:54;95392.44;;;4.52;100.00
55032;BME280;40928;51.076;7.950;2023-03-14T14:05:20;95398.69;;;4.63;100.00
55032;BME280;40928;51.076;7.950;2023-03-14T14:07:48;95409.91;;;4.70;100.00
55032;BME280;40928;51.076;7.950;2023-03-14T14:10:14;95424.66;;;4.66;100.00